Time;durP1;ratioP1;P1;durP2;ratioP2;P2;SDS_P1;SDS_P2;PMS_P1;PMS_P2;Temp;Humidity;BMP_temperature;BMP_pressure;BME280_temperature;BME280_humidity;BME280_pressure;Samples;Min_cycle;Max_cycle;Signal;HPM_P1;HPM_P2
2023/04/19 00:00:38;;;;;;;;;16.25;15.50;;;;;-147.17;100.00;-15917.19;5032015;28;51203;-58
2023/04/19 00:03:05;;;;;;;;;33.00;32.75;;;;;-147.17;100.00;-15917.19;5018260;28;50981;-57
2023/04/19 00:05:31;;;;;;;;;30.75;28.00;;;;;-147.17;100.00;-15917.19;5018522;28;51344;-58
2023/04/19 00:07:57;;;;;;;;;35.75;33.50;;;;;-147.17;100.00;-15917.19;5032737;28;51089;-57
2023/04/19 00:10:22;;;;;;;;;33.75;31.75;;;;;-147.17;100.00;-15917.19;5024760;28;51525;-58
2023/04/19 00:12:47;;;;;;;;;30.50;28.75;;;;;-147.17;100.00;-15917.19;5018137;28;51330;-57
2023/04/19 00:15:13;;;;;;;;;34.25;32.75;;;;;-147.17;100.00;-15917.19;5014833;28;51044;-58
2023/04/19 00:17:38;;;;;;;;;33.50;32.50;;;;;-147.17;100.00;-15917.19;5033199;28;52139;-59
2023/04/19 00:20:05;;;;;;;;;29.75;28.00;;;;;-147.17;100.00;-15917.19;5033264;28;51104;-56
2023/04/19 00:22:30;;;;;;;;;35.00;32.50;;;;;-147.17;100.00;-15917.19;5018940;28;51512;-57
2023/04/19 00:24:56;;;;;;;;;38.75;34.00;;;;;-147.17;100.00;-15917.19;5018501;28;51066;-57
2023/04/19 00:27:21;;;;;;;;;31.00;30.75;;;;;-147.17;100.00;-15917.19;5026611;28;52307;-57
2023/04/19 00:29:46;;;;;;;;;31.25;29.75;;;;;-147.17;100.00;-15917.19;5014004;28;50955;-56
2023/04/19 00:32:12;;;;;;;;;31.25;29.50;;;;;-147.17;100.00;-15917.19;5009461;28;51081;-56
2023/04/19 00:34:37;;;;;;;;;29.25;27.50;;;;;-147.17;100.00;-15917.19;5034866;28;51384;-56
2023/04/19 00:37:05;;;;;;;;;31.75;29.00;;;;;-147.17;100.00;-15917.19;5033212;28;52022;-56
2023/04/19 00:39:31;;;;;;;;;29.75;26.50;;;;;-147.17;100.00;-15917.19;5032614;28;50949;-56
2023/04/19 00:41:56;;;;;;;;;27.75;23.25;;;;;-147.17;100.00;-15917.19;5029678;28;51662;-57
2023/04/19 00:44:22;;;;;;;;;27.00;25.25;;;;;-147.17;100.00;-15917.19;5008921;28;51290;-58
2023/04/19 00:46:48;;;;;;;;;21.25;20.75;;;;;-147.17;100.00;-15917.19;5022538;28;52467;-57
2023/04/19 00:49:13;;;;;;;;;27.75;27.00;;;;;-147.17;100.00;-15917.19;5032310;28;51051;-56
2023/04/19 00:51:39;;;;;;;;;29.75;26.75;;;;;-147.17;100.00;-15917.19;5021388;28;51227;-57
2023/04/19 00:54:06;;;;;;;;;24.50;24.00;;;;;-147.17;100.00;-15917.19;5018761;28;51299;-57
2023/04/19 00:56:33;;;;;;;;;23.25;22.50;;;;;-147.17;100.00;-15917.19;5032107;28;51120;-56
2023/04/19 00:58:59;;;;;;;;;19.75;19.75;;;;;-147.17;100.00;-15917.19;5013684;28;51129;-57
2023/04/19 01:01:25;;;;;;;;;22.00;21.50;;;;;-147.17;100.00;-15917.19;5009127;28;51209;-56
2023/04/19 01:03:51;;;;;;;;;20.50;20.00;;;;;-147.17;100.00;-15917.19;5033869;28;51139;-57
2023/04/19 01:06:16;;;;;;;;;19.50;18.50;;;;;-147.17;100.00;-15917.19;5031611;28;51543;-59
2023/04/19 01:08:42;;;;;;;;;22.50;21.25;;;;;-147.17;100.00;-15917.19;5029096;28;51239;-57
2023/04/19 01:11:07;;;;;;;;;21.50;21.50;;;;;-147.17;100.00;-15917.19;5031217;28;51819;-57
2023/04/19 01:13:33;;;;;;;;;23.00;21.75;;;;;-147.17;100.00;-15917.19;5020876;28;50973;-57
2023/04/19 01:15:59;;;;;;;;;23.00;22.00;;;;;-147.17;100.00;-15917.19;5018474;28;51755;-58
2023/04/19 01:18:24;;;;;;;;;23.00;21.50;;;;;-147.17;100.00;-15917.19;5023809;28;51226;-58
2023/04/19 01:20:50;;;;;;;;;25.25;23.50;;;;;-147.17;100.00;-15917.19;5022965;28;51237;-57
2023/04/19 01:23:16;;;;;;;;;29.00;27.75;;;;;-147.17;100.00;-15917.19;5014803;28;51049;-58
2023/04/19 01:25:41;;;;;;;;;24.00;23.00;;;;;-147.17;100.00;-15917.19;5024887;28;51079;-57
2023/04/19 01:28:07;;;;;;;;;29.25;27.50;;;;;-147.17;100.00;-15917.19;5022528;28;50989;-57
2023/04/19 01:30:33;;;;;;;;;25.00;24.00;;;;;-147.17;100.00;-15917.19;5032199;28;51174;-58
2023/04/19 01:32:58;;;;;;;;;23.75;23.75;;;;;-147.17;100.00;-15917.19;5010773;28;51176;-57
2023/04/19 01:35:25;;;;;;;;;27.50;26.00;;;;;-147.17;100.00;-15917.19;5014719;28;52523;-55
2023/04/19 01:37:52;;;;;;;;;27.00;26.00;;;;;-147.17;100.00;-15917.19;5031059;28;51056;-57
2023/04/19 01:40:17;;;;;;;;;28.75;26.25;;;;;-147.17;100.00;-15917.19;5022388;28;50954;-57
2023/04/19 01:42:43;;;;;;;;;31.50;28.25;;;;;-147.17;100.00;-15917.19;5024256;28;51161;-57
2023/04/19 01:45:09;;;;;;;;;29.25;28.00;;;;;-147.17;100.00;-15917.19;5012354;28;60290;-59
2023/04/19 01:47:34;;;;;;;;;26.00;24.50;;;;;-147.17;100.00;-15917.19;5018454;28;51421;-57
2023/04/19 01:49:59;;;;;;;;;24.00;23.25;;;;;-147.17;100.00;-15917.19;5031981;28;51317;-61
2023/04/19 01:52:25;;;;;;;;;26.75;23.25;;;;;-147.17;100.00;-15917.19;5030457;28;51289;-56
2023/04/19 01:54:50;;;;;;;;;21.50;21.25;;;;;-147.17;100.00;-15917.19;5017486;28;51225;-56
2023/04/19 01:57:17;;;;;;;;;16.00;15.25;;;;;-147.17;100.00;-15917.19;5032455;28;53051;-56
2023/04/19 01:59:42;;;;;;;;;23.00;20.25;;;;;-147.17;100.00;-15917.19;5029966;28;51167;-56
2023/04/19 02:02:08;;;;;;;;;22.25;19.25;;;;;-147.17;100.00;-15917.19;5022522;28;51530;-56
2023/04/19 02:04:33;;;;;;;;;23.00;21.50;;;;;-147.17;100.00;-15917.19;5032435;28;52071;-57
2023/04/19 02:06:59;;;;;;;;;21.25;20.25;;;;;-147.17;100.00;-15917.19;5024900;28;51202;-57
2023/04/19 02:09:24;;;;;;;;;22.25;22.00;;;;;-147.17;100.00;-15917.19;5022575;28;50938;-58
2023/04/19 02:11:49;;;;;;;;;19.50;17.00;;;;;-147.17;100.00;-15917.19;5019171;28;52490;-56
2023/04/19 02:14:15;;;;;;;;;25.50;23.25;;;;;-147.17;100.00;-15917.19;5021077;28;55433;-56
2023/04/19 02:16:40;;;;;;;;;22.75;22.75;;;;;-147.17;100.00;-15917.19;5023817;28;50968;-57
2023/04/19 02:19:06;;;;;;;;;20.75;20.50;;;;;-147.17;100.00;-15917.19;5030378;28;51287;-57
2023/04/19 02:21:31;;;;;;;;;25.25;20.25;;;;;-147.17;100.00;-15917.19;5024797;28;51308;-57
2023/04/19 02:23:57;;;;;;;;;20.75;20.50;;;;;-147.17;100.00;-15917.19;5012853;28;51898;-57
2023/04/19 02:26:23;;;;;;;;;17.00;14.00;;;;;-147.17;100.00;-15917.19;5013621;28;51133;-56
2023/04/19 02:28:50;;;;;;;;;20.25;19.00;;;;;-147.17;100.00;-15917.19;5018467;28;51249;-57
2023/04/19 02:31:16;;;;;;;;;18.75;18.25;;;;;-147.17;100.00;-15917.19;5032556;28;51049;-57
2023/04/19 02:33:41;;;;;;;;;19.75;19.75;;;;;-147.17;100.00;-15917.19;5031740;28;51789;-56
2023/04/19 02:36:07;;;;;;;;;24.00;20.75;;;;;-147.17;100.00;-15917.19;5031381;28;51041;-56
2023/04/19 02:38:32;;;;;;;;;18.25;18.25;;;;;-147.17;100.00;-15917.19;5021088;28;51051;-57
2023/04/19 02:40:59;;;;;;;;;22.00;21.25;;;;;-147.17;100.00;-15917.19;5032172;28;51139;-57
2023/04/19 02:43:24;;;;;;;;;20.50;19.50;;;;;-147.17;100.00;-15917.19;5030942;28;52775;-58
2023/04/19 02:45:50;;;;;;;;;21.75;19.50;;;;;-147.17;100.00;-15917.19;5020875;28;51142;-57
2023/04/19 02:48:15;;;;;;;;;16.75;16.75;;;;;-147.17;100.00;-15917.19;5031381;28;51077;-57
2023/04/19 02:50:41;;;;;;;;;19.25;18.75;;;;;-147.17;100.00;-15917.19;5017916;28;51446;-57
2023/04/19 02:53:06;;;;;;;;;18.00;16.50;;;;;-147.17;100.00;-15917.19;5028653;28;51087;-58
2023/04/19 02:55:32;;;;;;;;;15.25;15.25;;;;;-147.17;100.00;-15917.19;5013326;28;51197;-58
2023/04/19 02:57:57;;;;;;;;;19.25;18.25;;;;;-147.17;100.00;-15917.19;5029155;28;51013;-57
2023/04/19 03:00:22;;;;;;;;;19.75;19.00;;;;;-147.17;100.00;-15917.19;5021863;28;51121;-57
2023/04/19 03:02:48;;;;;;;;;24.50;21.00;;;;;-147.17;100.00;-15917.19;5015495;28;54131;-58
2023/04/19 03:05:13;;;;;;;;;18.75;18.25;;;;;-147.17;100.00;-15917.19;5030973;28;51165;-57
2023/04/19 03:07:38;;;;;;;;;22.00;21.50;;;;;-147.17;100.00;-15917.19;5031943;28;51397;-57
2023/04/19 03:10:05;;;;;;;;;20.75;20.75;;;;;-147.17;100.00;-15917.19;5030836;28;51409;-57
2023/04/19 03:12:30;;;;;;;;;22.00;19.50;;;;;-147.17;100.00;-15917.19;5013454;28;52132;-58
2023/04/19 03:14:55;;;;;;;;;20.25;19.25;;;;;-147.17;100.00;-15917.19;5025041;28;51180;-57
2023/04/19 03:17:21;;;;;;;;;17.75;14.25;;;;;-147.17;100.00;-15917.19;5032121;28;51601;-57
2023/04/19 03:19:46;;;;;;;;;22.00;18.00;;;;;-147.17;100.00;-15917.19;5031110;28;51251;-58
2023/04/19 03:22:14;;;;;;;;;21.00;21.00;;;;;-147.17;100.00;-15917.19;5015778;28;51568;-57
2023/04/19 03:24:40;;;;;;;;;18.00;16.25;;;;;-147.17;100.00;-15917.19;5019347;28;50957;-56
2023/04/19 03:27:08;;;;;;;;;18.25;18.25;;;;;-147.17;100.00;-15917.19;4998790;28;51205;-58
2023/04/19 03:29:33;;;;;;;;;19.25;17.25;;;;;-147.17;100.00;-15917.19;5012882;28;51068;-57
2023/04/19 03:31:59;;;;;;;;;17.00;15.00;;;;;-147.17;100.00;-15917.19;5025754;28;51065;-55
2023/04/19 03:34:24;;;;;;;;;21.50;20.00;;;;;-147.17;100.00;-15917.19;5024002;28;51077;-56
2023/04/19 03:36:49;;;;;;;;;20.50;20.50;;;;;-147.17;100.00;-15917.19;5029745;28;51083;-56
2023/04/19 03:39:15;;;;;;;;;21.50;20.75;;;;;-147.17;100.00;-15917.19;5025081;28;51126;-56
2023/04/19 03:41:40;;;;;;;;;18.75;18.25;;;;;-147.17;100.00;-15917.19;5009857;28;51698;-56
2023/04/19 03:44:06;;;;;;;;;20.75;19.25;;;;;-147.17;100.00;-15917.19;5031208;28;51001;-57
2023/04/19 03:46:31;;;;;;;;;23.00;22.00;;;;;-147.17;100.00;-15917.19;5027940;28;51117;-57
2023/04/19 03:48:57;;;;;;;;;26.25;23.25;;;;;-147.17;100.00;-15917.19;5021267;28;51077;-57
2023/04/19 03:51:23;;;;;;;;;21.25;19.75;;;;;-147.17;100.00;-15917.19;5021402;28;51929;-56
2023/04/19 03:53:48;;;;;;;;;19.75;19.00;;;;;-147.17;100.00;-15917.19;5027742;28;51069;-56
2023/04/19 03:56:13;;;;;;;;;23.25;21.75;;;;;-147.17;100.00;-15917.19;5030955;28;51212;-57
2023/04/19 03:58:39;;;;;;;;;22.50;19.75;;;;;-147.17;100.00;-15917.19;5029322;28;51276;-57
2023/04/19 04:01:07;;;;;;;;;21.50;21.00;;;;;-147.17;100.00;-15917.19;5023074;28;51181;-55
2023/04/19 04:03:32;;;;;;;;;22.25;19.00;;;;;-147.17;100.00;-15917.19;5032863;28;51134;-56
2023/04/19 04:05:58;;;;;;;;;19.50;19.00;;;;;-147.17;100.00;-15917.19;5015235;28;51276;-57
2023/04/19 04:08:23;;;;;;;;;26.00;24.50;;;;;-147.17;100.00;-15917.19;5026684;28;51693;-56
2023/04/19 04:10:48;;;;;;;;;25.00;24.50;;;;;-147.17;100.00;-15917.19;5030757;28;51251;-56
2023/04/19 04:13:14;;;;;;;;;21.25;19.50;;;;;-147.17;100.00;-15917.19;5032942;28;51067;-56
2023/04/19 04:15:39;;;;;;;;;24.00;23.00;;;;;-147.17;100.00;-15917.19;5026578;28;51374;-54
2023/04/19 04:18:04;;;;;;;;;22.50;21.25;;;;;-147.17;100.00;-15917.19;5032614;28;51167;-55
2023/04/19 04:20:30;;;;;;;;;21.75;20.50;;;;;-147.17;100.00;-15917.19;5030073;28;52025;-57
2023/04/19 04:22:55;;;;;;;;;26.75;24.00;;;;;-147.17;100.00;-15917.19;5033485;28;50982;-56
2023/04/19 04:25:21;;;;;;;;;21.25;20.00;;;;;-147.17;100.00;-15917.19;5030068;28;51416;-57
2023/04/19 04:27:49;;;;;;;;;25.75;24.75;;;;;-147.17;100.00;-15917.19;5032788;28;51046;-57
2023/04/19 04:30:15;;;;;;;;;23.75;22.75;;;;;-147.17;100.00;-15917.19;5028419;28;52136;-57
2023/04/19 04:32:40;;;;;;;;;24.00;21.75;;;;;-147.17;100.00;-15917.19;5024435;28;51312;-57
2023/04/19 04:35:08;;;;;;;;;26.25;23.50;;;;;-147.17;100.00;-15917.19;5033009;28;51236;-56
2023/04/19 04:37:34;;;;;;;;;19.75;18.00;;;;;-147.17;100.00;-15917.19;5034159;28;51014;-57
2023/04/19 04:40:06;;;;;;;;;22.75;22.50;;;;;-147.17;100.00;-15917.19;5016753;28;51217;-56
2023/04/19 04:42:32;;;;;;;;;25.25;25.25;;;;;-147.17;100.00;-15917.19;5021341;28;51084;-56
2023/04/19 04:45:00;;;;;;;;;23.50;23.25;;;;;-147.17;100.00;-15917.19;5024512;28;51162;-57
2023/04/19 04:47:30;;;;;;;;;24.50;23.00;;;;;-147.17;100.00;-15917.19;5033521;28;51771;-57
2023/04/19 04:49:55;;;;;;;;;22.50;21.25;;;;;-147.17;100.00;-15917.19;5027743;28;52958;-57
2023/04/19 04:52:21;;;;;;;;;26.50;25.25;;;;;-147.17;100.00;-15917.19;5026894;28;51077;-56
2023/04/19 04:54:46;;;;;;;;;28.00;26.75;;;;;-147.17;100.00;-15917.19;5029885;28;51097;-57
2023/04/19 04:57:11;;;;;;;;;24.50;24.00;;;;;-147.17;100.00;-15917.19;5007164;28;51107;-58
2023/04/19 04:59:37;;;;;;;;;18.75;18.50;;;;;-147.17;100.00;-15917.19;5022878;28;51520;-57
2023/04/19 05:02:02;;;;;;;;;25.00;23.00;;;;;-147.17;100.00;-15917.19;4995368;28;51216;-57
2023/04/19 05:04:27;;;;;;;;;24.25;22.00;;;;;-147.17;100.00;-15917.19;5029827;28;51132;-55
2023/04/19 05:06:53;;;;;;;;;27.50;24.75;;;;;-147.17;100.00;-15917.19;5013770;28;51138;-56
2023/04/19 05:09:18;;;;;;;;;21.00;19.75;;;;;-147.17;100.00;-15917.19;5015899;28;51192;-57
2023/04/19 05:11:43;;;;;;;;;22.25;22.25;;;;;-147.17;100.00;-15917.19;5012280;28;51311;-57
2023/04/19 05:14:09;;;;;;;;;19.50;19.50;;;;;-147.17;100.00;-15917.19;5028621;28;51052;-57
2023/04/19 05:16:34;;;;;;;;;27.75;24.25;;;;;-147.17;100.00;-15917.19;5033281;28;51152;-57
2023/04/19 05:18:59;;;;;;;;;28.25;25.75;;;;;-147.17;100.00;-15917.19;5026663;28;52404;-57
2023/04/19 05:21:25;;;;;;;;;22.50;20.50;;;;;-147.17;100.00;-15917.19;5029305;28;51122;-57
2023/04/19 05:23:52;;;;;;;;;26.25;23.75;;;;;-147.17;100.00;-15917.19;5025266;28;51167;-57
2023/04/19 05:26:18;;;;;;;;;27.50;21.50;;;;;-147.17;100.00;-15917.19;5026581;28;51326;-57
2023/04/19 05:28:44;;;;;;;;;23.25;20.50;;;;;-147.17;100.00;-15917.19;5031383;28;51218;-56
2023/04/19 05:31:10;;;;;;;;;24.75;22.25;;;;;-147.17;100.00;-15917.19;5030595;28;51032;-56
2023/04/19 05:33:36;;;;;;;;;26.75;24.50;;;;;-147.17;100.00;-15917.19;5027225;28;52155;-56
2023/04/19 05:36:01;;;;;;;;;25.75;24.50;;;;;-147.17;100.00;-15917.19;5033285;28;51169;-56
2023/04/19 05:38:26;;;;;;;;;22.25;21.75;;;;;-147.17;100.00;-15917.19;5017790;28;51731;-56
2023/04/19 05:40:52;;;;;;;;;29.00;25.00;;;;;-147.17;100.00;-15917.19;5030074;28;51223;-57
2023/04/19 05:43:17;;;;;;;;;32.00;29.00;;;;;-147.17;100.00;-15917.19;5029785;28;51517;-55
2023/04/19 05:45:43;;;;;;;;;26.75;26.50;;;;;-147.17;100.00;-15917.19;5014936;28;51127;-56
2023/04/19 05:48:08;;;;;;;;;30.50;28.25;;;;;-147.17;100.00;-15917.19;5006748;28;53823;-56
2023/04/19 05:50:35;;;;;;;;;28.50;26.25;;;;;-147.17;100.00;-15917.19;5021849;28;51143;-54
2023/04/19 05:53:01;;;;;;;;;30.25;26.50;;;;;-147.17;100.00;-15917.19;5032511;28;51240;-56
2023/04/19 05:55:26;;;;;;;;;23.25;23.00;;;;;-147.17;100.00;-15917.19;5027114;28;51327;-56
2023/04/19 05:57:52;;;;;;;;;27.00;26.00;;;;;-147.17;100.00;-15917.19;5027862;28;51989;-56
2023/04/19 06:00:17;;;;;;;;;30.00;27.00;;;;;-147.17;100.00;-15917.19;5032723;28;50989;-56
2023/04/19 06:02:43;;;;;;;;;24.50;23.75;;;;;-147.17;100.00;-15917.19;5028248;28;51133;-56
2023/04/19 06:05:09;;;;;;;;;22.50;22.50;;;;;-147.17;100.00;-15917.19;5012582;28;51566;-57
2023/04/19 06:07:34;;;;;;;;;24.00;22.25;;;;;-147.17;100.00;-15917.19;5021336;28;52734;-56
2023/04/19 06:09:59;;;;;;;;;28.00;26.50;;;;;-147.17;100.00;-15917.19;5026091;28;51237;-57
2023/04/19 06:12:25;;;;;;;;;27.50;25.75;;;;;-147.17;100.00;-15917.19;5023074;28;51140;-57
2023/04/19 06:14:51;;;;;;;;;23.50;22.25;;;;;-147.17;100.00;-15917.19;5030615;28;51421;-58
2023/04/19 06:17:16;;;;;;;;;25.50;22.50;;;;;-147.17;100.00;-15917.19;5031653;28;51999;-55
2023/04/19 06:19:42;;;;;;;;;25.75;24.00;;;;;-147.17;100.00;-15917.19;5030867;28;51167;-57
2023/04/19 06:22:07;;;;;;;;;23.75;23.50;;;;;-147.17;100.00;-15668.00;5020025;28;51116;-57
2023/04/19 06:24:32;;;;;;;;;28.50;25.75;;;;;-147.17;100.00;-14676.94;5010877;28;50969;-56
2023/04/19 06:26:58;;;;;;;;;27.00;26.00;;;;;-147.17;100.00;-14429.16;5010762;28;51019;-57
2023/04/19 06:29:24;;;;;;;;;22.50;21.75;;;;;-147.17;100.00;-14429.16;4994318;28;51036;-57
2023/04/19 06:31:50;;;;;;;;;24.00;22.50;;;;;-147.17;100.00;-13189.88;4994532;28;51192;-56
2023/04/19 06:34:15;;;;;;;;;25.50;23.50;;;;;-147.17;100.00;-11950.22;5012134;28;51212;-56
2023/04/19 06:36:41;;;;;;;;;27.00;25.25;;;;;-147.17;100.00;-11454.25;5012289;28;51200;-57
2023/04/19 06:39:06;;;;;;;;;25.25;24.75;;;;;-147.17;100.00;-10462.09;5011839;28;51162;-57
2023/04/19 06:41:32;;;;;;;;;25.75;23.25;;;;;-147.17;100.00;-8973.38;5023171;28;51421;-56
2023/04/19 06:43:57;;;;;;;;;28.25;24.75;;;;;-147.17;100.00;-8477.03;5032003;28;51088;-58
2023/04/19 06:46:22;;;;;;;;;24.75;23.75;;;;;-147.17;100.00;-6242.59;5013489;28;51115;-58
2023/04/19 06:48:48;;;;;;;;;22.50;21.25;;;;;-147.17;100.00;-4503.81;5031872;28;50885;-57
2023/04/19 06:51:13;;;;;;;;;24.25;23.50;;;;;-147.17;100.00;-3261.34;5025737;28;50983;-57
2023/04/19 06:53:39;;;;;;;;;25.75;24.75;;;;;-147.17;100.00;-2515.66;5031677;28;50879;-57
2023/04/19 06:56:05;;;;;;;;;22.75;22.25;;;;;-147.17;100.00;-775.19;5017504;28;52302;-57
2023/04/19 06:58:33;;;;;;;;;24.00;23.50;;;;;-147.17;100.00;-277.75;5010349;28;51122;-56
2023/04/19 07:01:00;;;;;;;;;19.25;18.75;;;;;-147.17;100.00;7440.50;5024308;28;51146;-57
2023/04/19 07:03:26;;;;;;;;;22.00;21.50;;;;;-147.17;100.00;7191.28;5012232;28;51401;-56
2023/04/19 07:05:51;;;;;;;;;24.50;22.25;;;;;-147.17;100.00;9933.56;5011725;28;52347;-57
2023/04/19 07:08:17;;;;;;;;;21.00;18.00;;;;;-147.17;100.00;6942.09;5021982;28;51856;-56
2023/04/19 07:10:43;;;;;;;;;25.50;24.50;;;;;-147.17;100.00;17422.38;5020622;28;51060;-56
2023/04/19 07:13:10;;;;;;;;;24.00;24.00;;;;;-147.17;100.00;11929.16;5027439;28;51493;-57
2023/04/19 07:15:36;;;;;;;;;23.75;22.75;;;;;-147.17;100.00;10432.38;5012017;28;51875;-57
2023/04/19 07:18:01;;;;;;;;;23.50;22.50;;;;;-147.17;100.00;11679.66;5028262;28;51294;-58
2023/04/19 07:20:30;;;;;;;;;21.75;19.75;;;;;-147.17;100.00;13176.94;5001623;28;51070;-56
2023/04/19 07:22:58;;;;;;;;;21.75;21.25;;;;;-147.17;100.00;13426.53;5009275;28;51443;-56
2023/04/19 07:25:23;;;;;;;;;24.50;23.75;;;;;-147.17;100.00;12178.69;5019142;28;51177;-57
2023/04/19 07:27:49;;;;;;;;;25.75;25.00;;;;;-147.17;100.00;14425.13;5031398;28;51182;-55
2023/04/19 07:30:14;;;;;;;;;24.75;24.75;;;;;-147.17;100.00;16173.25;5016487;28;51050;-56
2023/04/19 07:32:40;;;;;;;;;24.75;23.25;;;;;-147.17;100.00;19671.84;5017176;28;51019;-55
2023/04/19 07:35:06;;;;;;;;;17.00;17.00;;;;;-147.17;100.00;20421.94;5023735;28;53246;-57
2023/04/19 07:37:31;;;;;;;;;22.50;22.00;;;;;-147.17;100.00;25031.25;5029739;28;51300;-59
2023/04/19 07:39:58;;;;;;;;;24.25;24.25;;;;;-147.17;100.00;22673.13;5010629;28;51339;-58
2023/04/19 07:42:24;;;;;;;;;21.50;21.00;;;;;-147.17;100.00;21672.44;5035449;28;51253;-57
2023/04/19 07:44:50;;;;;;;;;24.00;23.50;;;;;-147.17;100.00;18671.91;5027093;28;51176;-56
2023/04/19 07:47:16;;;;;;;;;22.75;21.75;;;;;-147.17;100.00;20171.88;5037611;28;51157;-56
2023/04/19 07:49:43;;;;;;;;;24.00;24.00;;;;;-147.17;100.00;29505.03;5033969;28;51256;-55
2023/04/19 07:52:08;;;;;;;;;25.75;25.50;;;;;-147.17;100.00;25565.25;5040231;28;50969;-56
2023/04/19 07:54:34;;;;;;;;;27.25;24.75;;;;;-147.17;100.00;28573.06;5033029;28;52036;-57
2023/04/19 07:57:00;;;;;;;;;21.50;20.50;;;;;-147.17;100.00;33774.16;5038076;28;50915;-56
2023/04/19 07:59:26;;;;;;;;;26.75;25.00;;;;;-147.17;100.00;30084.66;5029499;28;51225;-57
2023/04/19 08:01:51;;;;;;;;;21.25;21.00;;;;;-147.17;100.00;30059.22;5019222;28;50982;-57
2023/04/19 08:04:18;;;;;;;;;23.75;22.25;;;;;-147.17;100.00;29058.59;5034033;28;51913;-56
2023/04/19 08:06:44;;;;;;;;;20.75;19.25;;;;;-147.17;100.00;33883.94;5024296;28;51218;-57
2023/04/19 08:09:10;;;;;;;;;29.50;29.50;;;;;-147.17;100.00;32129.81;5032297;28;51150;-57
2023/04/19 08:11:35;;;;;;;;;20.75;19.75;;;;;-147.17;100.00;33309.59;5033219;28;51349;-57
2023/04/19 08:14:01;;;;;;;;;25.00;23.00;;;;;-147.17;100.00;32919.56;5046094;28;50978;-56
2023/04/19 08:16:27;;;;;;;;;14.25;13.00;;;;;-147.17;100.00;32613.84;5038042;28;51132;-57
2023/04/19 08:18:52;;;;;;;;;23.25;22.25;;;;;-147.17;100.00;33609.50;5033947;28;51243;-57
2023/04/19 08:21:17;;;;;;;;;19.25;18.75;;;;;-147.17;100.00;34756.38;5033381;28;51196;-57
2023/04/19 08:23:43;;;;;;;;;25.75;25.00;;;;;-147.17;100.00;39973.53;5042434;28;51656;-57
2023/04/19 08:26:08;;;;;;;;;19.25;18.75;;;;;-147.17;100.00;40953.38;5018516;28;51048;-58
2023/04/19 08:28:34;;;;;;;;;24.00;23.25;;;;;-147.17;100.00;38526.78;5022288;28;51153;-55
2023/04/19 08:30:59;;;;;;;;;23.25;22.50;;;;;-147.17;100.00;40654.91;5042131;28;51574;-58
2023/04/19 08:33:25;;;;;;;;;25.75;23.75;;;;;-147.17;100.00;39584.81;5029327;28;53117;-57
2023/04/19 08:35:50;;;;;;;;;23.00;20.75;;;;;-147.17;100.00;39712.41;5033243;28;50958;-57
2023/04/19 08:38:15;;;;;;;;;21.00;20.25;;;;;-147.17;100.00;38942.91;5034252;28;51003;-56
2023/04/19 08:41:01;;;;;;;;;24.50;23.25;;;;;-147.17;100.00;36752.94;5030974;28;51327;-56
2023/04/19 08:43:32;;;;;;;;;18.00;17.00;;;;;-147.17;100.00;37710.41;5007904;28;53896;-56
2023/04/19 08:45:58;;;;;;;;;25.50;23.50;;;;;-147.17;100.00;36370.44;5032043;28;51056;-57
2023/04/19 08:48:24;;;;;;;;;23.00;20.75;;;;;-147.17;100.00;35944.78;5033147;28;51069;-56
2023/04/19 08:50:50;;;;;;;;;21.25;21.25;;;;;-147.17;100.00;35972.25;5021129;28;51206;-56
2023/04/19 08:53:16;;;;;;;;;22.50;22.00;;;;;-147.17;100.00;35366.22;5032189;28;51184;-57
2023/04/19 08:55:42;;;;;;;;;24.50;24.25;;;;;-147.17;100.00;37327.78;5032485;28;51284;-56
2023/04/19 08:58:08;;;;;;;;;23.00;22.00;;;;;-147.17;100.00;37800.69;5015249;28;51199;-55
2023/04/19 09:00:36;;;;;;;;;18.75;17.75;;;;;-147.17;100.00;37047.22;5030518;28;50991;-55
2023/04/19 09:03:02;;;;;;;;;20.00;19.50;;;;;-147.17;100.00;37447.47;5032424;28;51093;-55
2023/04/19 09:05:28;;;;;;;;;22.00;22.00;;;;;-147.17;100.00;36207.63;4998109;28;50954;-57
2023/04/19 09:07:53;;;;;;;;;23.75;22.75;;;;;-147.17;100.00;35179.94;5033352;28;51119;-56
2023/04/19 09:10:20;;;;;;;;;18.75;18.25;;;;;-147.17;100.00;34338.75;5033336;28;50936;-56
2023/04/19 09:13:02;;;;;;;;;21.50;20.50;;;;;-147.17;100.00;37494.56;5033092;28;51941;-57
2023/04/19 09:15:40;;;;;;;;;20.75;19.50;;;;;-147.17;100.00;38232.41;5032313;28;51148;-55
2023/04/19 09:18:08;;;;;;;;;19.00;18.33;;;;;-147.17;100.00;38118.59;5032723;28;51109;-58
2023/04/19 09:20:39;;;;;;;;;20.75;20.50;;;;;-147.17;100.00;39298.19;5033174;28;51147;-56
2023/04/19 09:23:11;;;;;;;;;21.00;20.00;;;;;-147.17;100.00;39506.28;5032724;28;51344;-57
2023/04/19 09:25:49;;;;;;;;;16.50;16.00;;;;;-147.17;100.00;40303.41;5014864;28;51050;-56
2023/04/19 09:28:15;;;;;;;;;21.75;21.25;;;;;-147.17;100.00;41126.22;5017847;28;51016;-56
2023/04/19 09:30:40;;;;;;;;;18.00;18.00;;;;;-147.17;100.00;40550.81;5033692;28;51082;-56
2023/04/19 09:33:09;;;;;;;;;20.00;18.25;;;;;-147.17;100.00;40971.06;5031606;28;51190;-56
2023/04/19 09:35:47;;;;;;;;;14.50;14.50;;;;;-147.17;100.00;41609.38;5033291;28;51090;-57
2023/04/19 09:38:20;;;;;;;;;19.75;18.50;;;;;-147.17;100.00;41141.94;5032270;28;50921;-54
2023/04/19 09:40:46;;;;;;;;;21.25;21.25;;;;;-147.17;100.00;41369.75;5032900;28;51006;-55
2023/04/19 09:43:12;;;;;;;;;20.00;19.75;;;;;-147.17;100.00;39910.72;5032503;28;52088;-56
2023/04/19 09:45:45;;;;;;;;;22.00;21.50;;;;;-147.17;100.00;38308.94;5032401;28;50986;-55
2023/04/19 09:48:12;;;;;;;;;20.00;19.00;;;;;-147.17;100.00;37263.03;5026975;28;51052;-56
2023/04/19 09:50:55;;;;;;;;;21.75;20.00;;;;;-147.17;100.00;35699.63;5032952;28;50942;-56
2023/04/19 09:53:22;;;;;;;;;21.75;20.75;;;;;-147.17;100.00;34995.59;5031761;28;51070;-56
2023/04/19 09:55:47;;;;;;;;;22.50;21.25;;;;;-147.17;100.00;34323.06;5016389;28;50877;-57
2023/04/19 09:58:14;;;;;;;;;18.33;17.67;;;;;-147.17;100.00;34591.69;5012029;28;51234;-57
2023/04/19 10:00:47;;;;;;;;;18.33;18.33;;;;;-147.17;100.00;34591.69;5011806;28;51330;-56
2023/04/19 10:03:14;;;;;;;;;24.25;23.00;;;;;-147.17;100.00;33697.69;5023592;28;53985;-57
2023/04/19 10:05:41;;;;;;;;;22.00;21.50;;;;;-147.17;100.00;32315.97;5030719;28;51239;-56
2023/04/19 10:08:08;;;;;;;;;19.33;19.33;;;;;-147.17;100.00;33092.03;5031957;28;51181;-56
2023/04/19 10:10:33;;;;;;;;;15.00;15.00;;;;;-147.17;100.00;34105.44;5032593;28;50982;-56
2023/04/19 10:13:03;;;;;;;;;17.00;17.00;;;;;-147.17;100.00;35468.19;5031372;28;51713;-56
2023/04/19 10:15:30;;;;;;;;;21.50;21.50;;;;;-147.17;100.00;36148.78;5032097;28;51033;-56
2023/04/19 10:17:56;;;;;;;;;22.00;21.00;;;;;-147.17;100.00;35295.63;5032055;28;51107;-56
2023/04/19 10:20:36;;;;;;;;;19.33;18.33;;;;;-147.17;100.00;35234.84;5025371;28;51118;-57
2023/04/19 10:23:06;;;;;;;;;21.50;21.25;;;;;-147.17;100.00;35001.47;5018529;28;51008;-55
2023/04/19 10:25:31;;;;;;;;;19.00;19.00;;;;;-147.17;100.00;34844.59;5031781;28;51108;-56
2023/04/19 10:27:57;;;;;;;;;21.50;21.50;;;;;-147.17;100.00;35636.88;4996772;28;50964;-54
2023/04/19 10:30:26;;;;;;;;;20.25;20.25;;;;;-147.17;100.00;37930.19;5031099;28;51029;-57
2023/04/19 10:32:55;;;;;;;;;23.25;23.00;;;;;-147.17;100.00;38852.59;5013149;28;54209;-57
2023/04/19 10:35:38;;;;;;;;;17.50;16.25;;;;;-147.17;100.00;38367.81;5008249;28;51080;-55
2023/04/19 10:38:13;;;;;;;;;35.75;32.50;;;;;-147.17;100.00;37008.00;5005008;28;51133;-55
2023/04/19 10:40:51;;;;;;;;;20.00;19.25;;;;;-147.17;100.00;35283.84;5031476;28;51191;-58
2023/04/19 10:43:23;;;;;;;;;19.50;17.75;;;;;-147.17;100.00;34185.84;5031172;28;50916;-55
2023/04/19 10:45:49;;;;;;;;;20.50;18.50;;;;;-147.17;100.00;32837.25;5013355;28;51087;-57